Time;durP1;ratioP1;P1;durP2;ratioP2;P2;SDS_P1;SDS_P2;PMS_P1;PMS_P2;Temp;Humidity;BMP_temperature;BMP_pressure;BME280_temperature;BME280_humidity;BME280_pressure;Samples;Min_cycle;Max_cycle;Signal;HPM_P1;HPM_P2
2023/10/20 00:00:27;;;;;;;88.05;47.95;;;;;;;9.57;83.41;98221.44;4937148;28;96857;-77
2023/10/20 00:02:52;;;;;;;89.28;49.58;;;;;;;9.58;83.29;98220.50;4936502;28;97362;-76
2023/10/20 00:05:18;;;;;;;90.22;51.20;;;;;;;9.44;82.93;98202.19;4899745;28;100913;-76
2023/10/20 00:07:43;;;;;;;99.45;52.80;;;;;;;9.44;83.32;98207.41;4934352;28;96770;-77
2023/10/20 00:10:11;;;;;;;91.13;51.03;;;;;;;9.58;83.43;98212.63;4920238;28;96751;-76
2023/10/20 00:12:37;;;;;;;92.30;50.47;;;;;;;9.61;83.14;98208.97;4936373;28;99873;-77
2023/10/20 00:15:03;;;;;;;90.85;51.33;;;;;;;9.62;82.99;98206.25;4919509;28;101115;-77
2023/10/20 00:17:29;;;;;;;105.00;50.20;;;;;;;9.42;83.36;98173.47;4953164;28;97331;-77
2023/10/20 00:19:55;;;;;;;89.03;51.55;;;;;;;9.48;83.60;98199.28;4935943;28;97302;-77
2023/10/20 00:22:20;;;;;;;90.47;49.20;;;;;;;9.33;83.57;98154.88;4903696;28;100938;-77
2023/10/20 00:24:46;;;;;;;98.68;50.25;;;;;;;9.32;83.30;98156.66;4935257;28;101069;-77
2023/10/20 00:27:13;;;;;;;92.95;48.50;;;;;;;9.48;83.11;98185.31;4920636;28;96895;-77
2023/10/20 00:29:42;;;;;;;86.93;48.58;;;;;;;9.27;83.76;98150.88;4935913;28;96797;-76
2023/10/20 00:32:10;;;;;;;105.82;47.47;;;;;;;9.29;83.60;98160.31;4953068;28;98293;-77
2023/10/20 00:34:37;;;;;;;96.07;47.47;;;;;;;9.21;84.48;98148.66;4935895;28;97921;-77
2023/10/20 00:37:03;;;;;;;84.95;48.63;;;;;;;9.18;84.17;98141.81;4953798;28;97082;-77
2023/10/20 00:39:29;;;;;;;83.40;48.92;;;;;;;9.36;83.57;98152.06;4918994;28;96866;-77
2023/10/20 00:41:56;;;;;;;88.05;47.88;;;;;;;9.28;84.30;98144.72;4935971;28;98060;-76
2023/10/20 00:44:22;;;;;;;93.28;51.22;;;;;;;9.21;84.38;98157.34;4935358;28;98025;-78
2023/10/20 00:46:47;;;;;;;92.65;48.55;;;;;;;9.30;83.97;98167.22;4920261;28;96756;-77
2023/10/20 00:49:13;;;;;;;82.90;48.35;;;;;;;9.10;84.32;98132.75;4936112;28;97067;-77
2023/10/20 00:51:39;;;;;;;88.68;48.72;;;;;;;9.26;84.04;98152.66;4935620;28;101184;-76
2023/10/20 00:54:06;;;;;;;89.50;49.58;;;;;;;9.23;84.05;98145.00;4934816;28;97979;-77
2023/10/20 00:56:32;;;;;;;82.03;46.92;;;;;;;9.26;83.93;98151.81;4916479;28;96773;-77
2023/10/20 00:58:59;;;;;;;91.47;49.67;;;;;;;9.55;82.99;98191.88;4935101;28;97269;-77
2023/10/20 01:01:24;;;;;;;89.80;48.33;;;;;;;9.58;82.92;98190.84;4935392;28;100681;-77
2023/10/20 01:03:50;;;;;;;81.78;47.50;;;;;;;9.52;82.80;98178.97;4952590;28;98059;-77
2023/10/20 01:06:15;;;;;;;87.43;48.25;;;;;;;9.47;82.47;98163.53;4928955;28;96874;-77
2023/10/20 01:08:41;;;;;;;89.80;47.97;;;;;;;9.51;82.88;98159.81;4935684;28;97453;-76
2023/10/20 01:11:09;;;;;;;88.25;49.33;;;;;;;9.67;82.36;98177.16;4903680;28;101460;-76
2023/10/20 01:13:36;;;;;;;82.90;46.78;;;;;;;9.66;82.28;98165.00;4934737;28;98546;-77
2023/10/20 01:16:02;;;;;;;91.45;50.08;;;;;;;9.59;82.59;98166.31;4953815;28;96776;-77
2023/10/20 01:18:29;;;;;;;85.43;47.47;;;;;;;9.38;82.75;98143.19;4935714;28;96769;-77
2023/10/20 01:20:54;;;;;;;92.60;50.35;;;;;;;9.45;82.62;98122.66;4902499;28;100787;-77
2023/10/20 01:23:20;;;;;;;84.45;46.67;;;;;;;9.30;82.39;98099.16;4934176;28;101375;-77
2023/10/20 01:25:45;;;;;;;81.15;46.03;;;;;;;9.56;82.77;98135.91;4919283;28;96793;-76
2023/10/20 01:28:12;;;;;;;87.70;48.97;;;;;;;9.46;82.57;98122.59;4919470;28;97553;-77
2023/10/20 01:30:38;;;;;;;85.05;49.22;;;;;;;9.48;82.83;98123.34;4935087;28;98639;-77
2023/10/20 01:33:03;;;;;;;82.70;46.28;;;;;;;9.66;82.41;98147.50;4952795;28;97996;-79
2023/10/20 01:35:30;;;;;;;82.82;47.05;;;;;;;9.47;82.00;98108.53;4918347;28;96791;-76
2023/10/20 01:37:55;;;;;;;82.22;46.60;;;;;;;9.52;82.22;98127.44;4935867;28;96867;-77
2023/10/20 01:40:21;;;;;;;82.30;47.55;;;;;;;9.74;82.03;98160.94;4902160;28;101126;-76
2023/10/20 01:42:47;;;;;;;84.90;47.17;;;;;;;9.77;81.77;98143.31;4931063;28;98192;-77
2023/10/20 01:45:12;;;;;;;84.22;46.60;;;;;;;9.63;81.75;98131.13;4951665;28;96874;-77
2023/10/20 01:47:38;;;;;;;88.00;47.92;;;;;;;9.57;82.17;98126.28;4952632;28;97100;-77
2023/10/20 01:50:04;;;;;;;80.35;45.72;;;;;;;9.46;82.80;98124.38;4918130;28;101500;-77
2023/10/20 01:52:30;;;;;;;78.80;44.17;;;;;;;9.49;82.76;98140.72;4934279;28;98154;-76
2023/10/20 01:54:57;;;;;;;83.63;47.38;;;;;;;9.41;82.72;98132.50;4952309;28;97203;-76
2023/10/20 01:57:22;;;;;;;77.13;44.42;;;;;;;9.45;82.52;98136.63;4934898;28;96778;-77
2023/10/20 01:59:48;;;;;;;80.78;44.88;;;;;;;9.45;82.38;98120.06;4917922;28;101900;-77
2023/10/20 02:02:15;;;;;;;74.10;44.28;;;;;;;9.58;82.32;98130.59;4918435;28;101713;-76
2023/10/20 02:04:41;;;;;;;81.47;46.72;;;;;;;9.21;82.21;98086.66;4934408;28;97222;-76
2023/10/20 02:07:06;;;;;;;81.00;45.28;;;;;;;9.46;82.80;98129.59;4917033;28;96902;-76
2023/10/20 02:09:33;;;;;;;82.07;46.95;;;;;;;9.29;83.00;98094.03;4915335;28;101501;-77
2023/10/20 02:11:59;;;;;;;81.15;46.85;;;;;;;9.28;82.85;98094.97;4933939;28;101888;-76
2023/10/20 02:14:25;;;;;;;83.80;46.90;;;;;;;9.48;82.83;98120.72;4949461;28;97471;-77
2023/10/20 02:16:51;;;;;;;88.60;47.22;;;;;;;9.40;82.89;98122.16;4901994;28;96816;-77
2023/10/20 02:19:17;;;;;;;76.10;44.70;;;;;;;9.28;82.64;98100.22;4902127;28;101777;-77
2023/10/20 02:21:42;;;;;;;80.72;45.75;;;;;;;9.19;82.81;98078.06;4932277;28;101476;-77
2023/10/20 02:24:08;;;;;;;82.38;47.83;;;;;;;9.25;83.61;98082.91;4908330;28;97235;-76
2023/10/20 02:26:34;;;;;;;87.97;48.63;;;;;;;9.14;83.20;98072.28;4908156;28;96797;-77
2023/10/20 02:28:59;;;;;;;77.90;45.22;;;;;;;9.21;83.48;98085.81;4934404;28;97899;-76
2023/10/20 02:31:25;;;;;;;77.88;44.20;;;;;;;9.25;83.59;98080.31;4951925;28;97912;-77
2023/10/20 02:33:50;;;;;;;77.90;45.30;;;;;;;9.30;83.39;98085.22;4933288;28;97289;-76
2023/10/20 02:36:20;;;;;;;81.03;46.08;;;;;;;9.32;82.84;98088.59;4921543;28;97040;-77
2023/10/20 02:38:47;;;;;;;80.97;45.88;;;;;;;9.35;82.86;98101.50;4936229;28;98678;-76
2023/10/20 02:41:14;;;;;;;81.38;44.70;;;;;;;9.38;83.17;98092.59;4906140;28;101109;-77
2023/10/20 02:43:40;;;;;;;83.20;45.83;;;;;;;9.38;82.90;98106.53;4933585;28;97062;-76
2023/10/20 02:46:06;;;;;;;80.70;44.33;;;;;;;9.39;83.16;98115.22;4951097;28;96876;-77
2023/10/20 02:48:32;;;;;;;80.43;44.28;;;;;;;9.40;83.11;98109.06;4917749;28;101653;-77
2023/10/20 02:50:58;;;;;;;79.97;44.67;;;;;;;9.26;82.90;98079.34;4952212;28;99029;-77
2023/10/20 02:53:24;;;;;;;83.82;46.35;;;;;;;9.28;82.40;98076.66;4922969;28;96943;-78
2023/10/20 02:55:49;;;;;;;74.03;42.85;;;;;;;9.29;82.61;98073.09;4950458;28;96827;-76
2023/10/20 02:58:15;;;;;;;77.70;42.50;;;;;;;9.28;82.93;98092.34;4936493;28;98080;-76
2023/10/20 03:00:45;;;;;;;80.80;44.75;;;;;;;9.17;83.14;98066.03;4951094;28;97410;-76
2023/10/20 03:03:11;;;;;;;74.60;43.42;;;;;;;9.33;83.01;98085.03;4950429;28;96704;-77
2023/10/20 03:05:37;;;;;;;78.47;42.45;;;;;;;9.15;83.29;98060.03;4952397;28;96956;-77
2023/10/20 03:08:04;;;;;;;77.90;41.20;;;;;;;9.28;83.02;98074.88;4937542;28;98068;-77
2023/10/20 03:10:30;;;;;;;78.25;44.88;;;;;;;9.31;83.08;98073.84;4936635;28;101339;-76
2023/10/20 03:12:55;;;;;;;75.88;43.65;;;;;;;9.36;83.11;98068.28;4937618;28;97306;-76
2023/10/20 03:15:22;;;;;;;73.68;42.30;;;;;;;9.24;83.13;98062.06;4955136;28;97299;-77
2023/10/20 03:17:47;;;;;;;71.20;40.42;;;;;;;9.16;82.84;98053.84;4922401;28;101542;-77
2023/10/20 03:20:17;;;;;;;73.80;41.97;;;;;;;9.18;83.26;98067.69;4937339;28;98058;-77
2023/10/20 03:22:44;;;;;;;73.20;40.75;;;;;;;9.17;83.59;98058.16;4934361;28;97601;-77
2023/10/20 03:25:10;;;;;;;77.63;42.78;;;;;;;9.09;83.03;98021.16;4933593;28;97270;-76
2023/10/20 03:27:37;;;;;;;69.85;39.63;;;;;;;9.17;83.00;98032.81;4954638;28;97801;-77
2023/10/20 03:30:05;;;;;;;66.00;39.53;;;;;;;9.30;83.26;98072.97;4920332;28;101490;-79
2023/10/20 03:32:35;;;;;;;64.68;39.80;;;;;;;9.32;82.80;98093.00;4921303;28;96877;-76
2023/10/20 03:35:01;;;;;;;71.05;40.67;;;;;;;9.44;82.69;98098.28;4923668;28;96810;-76
2023/10/20 03:37:27;;;;;;;64.95;38.15;;;;;;;9.14;82.00;98064.44;4953149;28;98028;-77
2023/10/20 03:39:53;;;;;;;65.22;39.15;;;;;;;9.11;82.98;98059.41;4936807;28;98441;-77
2023/10/20 03:42:18;;;;;;;67.60;39.20;;;;;;;9.18;83.19;98072.94;4921241;28;96811;-77
2023/10/20 03:44:46;;;;;;;66.05;39.55;;;;;;;9.12;82.77;98057.63;4921426;28;96830;-77
2023/10/20 03:47:13;;;;;;;65.55;40.15;;;;;;;9.22;82.89;98096.22;4920396;28;101289;-76
2023/10/20 03:49:41;;;;;;;61.67;36.95;;;;;;;9.26;83.01;98095.06;4922954;28;99561;-76
2023/10/20 03:52:07;;;;;;;70.20;38.72;;;;;;;9.20;83.07;98092.00;4931035;28;96865;-77
2023/10/20 03:54:34;;;;;;;65.45;39.75;;;;;;;9.13;83.49;98070.59;4920912;28;97436;-76
2023/10/20 03:57:00;;;;;;;69.88;42.70;;;;;;;9.05;83.15;98063.25;4910598;28;101645;-77
2023/10/20 03:59:25;;;;;;;69.07;40.67;;;;;;;9.10;83.17;98054.25;4953799;28;98394;-76
2023/10/20 04:01:51;;;;;;;70.70;39.88;;;;;;;9.25;82.82;98066.34;4940466;28;96760;-77
2023/10/20 04:04:17;;;;;;;62.55;38.92;;;;;;;9.40;82.97;98072.41;4936454;28;97096;-76
2023/10/20 04:06:44;;;;;;;68.03;40.55;;;;;;;9.03;82.72;98006.69;4936433;28;98127;-76
2023/10/20 04:09:10;;;;;;;68.78;40.35;;;;;;;9.28;82.72;98056.53;4918332;28;97462;-76
2023/10/20 04:11:36;;;;;;;64.70;39.75;;;;;;;9.21;82.65;98052.63;4937449;28;97175;-77
2023/10/20 04:14:03;;;;;;;62.45;39.33;;;;;;;9.28;83.16;98069.63;4935586;28;96878;-76
2023/10/20 04:16:29;;;;;;;62.53;39.72;;;;;;;9.36;82.63;98071.72;4919948;28;101229;-76
2023/10/20 04:18:54;;;;;;;72.35;40.25;;;;;;;9.11;82.88;98048.09;4934346;28;97365;-77
2023/10/20 04:21:20;;;;;;;68.38;41.78;;;;;;;9.24;83.00;98049.81;4904185;28;97224;-76
2023/10/20 04:23:45;;;;;;;67.18;40.17;;;;;;;9.42;83.04;98075.75;4935394;28;97393;-76
2023/10/20 04:26:23;;;;;;;69.95;40.60;;;;;;;9.43;82.49;98070.41;4941266;28;97869;-77
2023/10/20 04:29:02;;;;;;;68.25;40.00;;;;;;;9.44;82.91;98068.63;4924617;28;99292;-77
2023/10/20 04:51:08;;;;;;;66.05;39.83;;;;;;;9.26;82.41;98040.09;4937892;28;97609;-71
2023/10/20 04:56:23;;;;;;;73.45;43.38;;;;;;;9.42;82.31;98025.97;4935980;28;96815;-70
2023/10/20 05:01:30;;;;;;;70.57;42.92;;;;;;;9.55;82.35;98052.22;4952420;28;97395;-72
2023/10/20 05:03:58;;;;;;;67.45;38.25;;;;;;;9.36;82.62;98026.38;4933036;28;96759;-72
2023/10/20 05:06:31;;;;;;;66.47;39.55;;;;;;;9.44;82.44;98053.75;4922335;28;97075;-81
2023/10/20 05:08:57;;;;;;;64.53;39.40;;;;;;;9.43;82.88;98032.91;4935521;28;98547;-75
2023/10/20 05:11:23;;;;;;;63.45;37.58;;;;;;;9.35;83.03;98024.72;4952800;28;97361;-71
2023/10/20 05:13:48;;;;;;;65.15;38.90;;;;;;;9.47;82.57;98026.53;4935244;28;97320;-80
2023/10/20 05:16:14;;;;;;;62.10;38.22;;;;;;;9.39;82.45;98002.63;4919415;28;97366;-79
2023/10/20 05:18:40;;;;;;;59.65;37.13;;;;;;;9.49;82.68;98025.50;4934631;28;101003;-72
2023/10/20 05:21:08;;;;;;;63.80;38.00;;;;;;;9.42;82.67;98021.56;4935625;28;97366;-72
2023/10/20 05:23:34;;;;;;;68.90;39.92;;;;;;;9.38;82.95;98016.66;4902753;28;97659;-72
2023/10/20 05:25:59;;;;;;;68.53;39.10;;;;;;;9.41;82.69;98033.00;4934495;28;96894;-72
2023/10/20 05:28:25;;;;;;;70.93;39.75;;;;;;;9.38;82.94;98017.50;4934338;28;98095;-72
2023/10/20 05:30:51;;;;;;;68.95;38.15;;;;;;;9.27;82.51;97992.00;4934853;28;99237;-72
2023/10/20 05:33:16;;;;;;;69.40;39.05;;;;;;;9.46;82.64;98030.94;4915833;28;97338;-73
2023/10/20 05:35:41;;;;;;;64.57;38.83;;;;;;;9.29;82.58;98011.09;4933561;28;96815;-72
2023/10/20 05:38:07;;;;;;;63.17;37.95;;;;;;;9.34;82.60;98013.41;4934493;28;97481;-72
2023/10/20 05:40:36;;;;;;;63.47;36.70;;;;;;;9.41;82.61;98026.94;4918093;28;101109;-72
2023/10/20 05:43:05;;;;;;;63.17;36.50;;;;;;;9.46;82.56;98040.56;4933401;28;96846;-70
2023/10/20 05:45:36;;;;;;;68.60;37.47;;;;;;;9.53;82.88;98034.81;4935320;28;96903;-72
2023/10/20 05:48:02;;;;;;;60.63;35.88;;;;;;;9.47;82.30;98037.84;4928493;28;101206;-75
2023/10/20 05:50:27;;;;;;;61.85;36.40;;;;;;;9.46;82.65;98048.44;4917131;28;99539;-80
2023/10/20 05:52:53;;;;;;;59.20;34.80;;;;;;;9.47;82.81;98039.63;4932132;28;97214;-79
2023/10/20 05:55:18;;;;;;;63.67;35.90;;;;;;;9.39;82.39;98007.84;4916318;28;97268;-84
2023/10/20 05:57:45;;;;;;;64.28;35.45;;;;;;;9.47;82.23;98023.91;4938171;28;98341;-83
2023/10/20 06:00:13;;;;;;;66.47;37.45;;;;;;;9.55;82.30;98031.28;4930073;28;98371;-83
2023/10/20 06:02:41;;;;;;;62.97;36.17;;;;;;;9.34;82.65;97995.09;4951040;28;97499;-83
2023/10/20 06:05:07;;;;;;;60.35;35.45;;;;;;;9.48;82.76;98012.47;4936638;28;96837;-85
2023/10/20 06:07:33;;;;;;;65.82;36.00;;;;;;;9.42;82.64;98013.72;4920094;28;101124;-85
2023/10/20 06:09:58;;;;;;;63.13;36.83;;;;;;;9.42;83.15;98007.66;4933374;28;98135;-85
2023/10/20 06:12:24;;;;;;;60.40;36.88;;;;;;;9.50;82.57;97994.91;4924884;28;96792;-84
2023/10/20 06:14:49;;;;;;;65.78;39.35;;;;;;;9.47;82.67;97979.38;4947273;28;96978;-85
2023/10/20 06:17:17;;;;;;;60.72;35.72;;;;;;;9.53;82.66;97994.69;4948741;28;97904;-83
2023/10/20 06:19:46;;;;;;;61.15;37.35;;;;;;;9.63;82.62;98001.00;4947868;28;97307;-79
2023/10/20 06:22:12;;;;;;;66.43;39.22;;;;;;;9.56;81.98;97977.94;4948032;28;96846;-80
2023/10/20 06:24:38;;;;;;;65.85;37.80;;;;;;;9.70;82.40;97993.56;4932426;28;97326;-78
2023/10/20 06:27:04;;;;;;;65.10;37.45;;;;;;;9.75;82.30;97994.94;4918687;28;97501;-79
2023/10/20 06:32:08;;;;;;;73.57;41.28;;;;;;;9.59;82.05;97962.84;4923870;28;97752;-80
2023/10/20 06:34:36;;;;;;;71.00;39.03;;;;;;;9.81;81.70;98008.56;4946747;28;96694;-79
2023/10/20 06:37:08;;;;;;;67.00;39.78;;;;;;;9.69;81.67;97989.28;4917380;28;97898;-79
2023/10/20 06:39:37;;;;;;;70.57;39.83;;;;;;;9.83;81.40;97988.31;4934372;28;97080;-83
2023/10/20 06:42:06;;;;;;;71.13;40.63;;;;;;;9.78;82.34;98008.78;4930449;28;97095;-74
2023/10/20 06:44:34;;;;;;;67.80;37.60;;;;;;;9.68;82.04;97979.72;4930514;28;96986;-73
2023/10/20 06:46:59;;;;;;;67.10;37.92;;;;;;;9.73;81.94;98001.22;4934305;28;97412;-77
2023/10/20 06:49:25;;;;;;;67.65;37.30;;;;;;;9.62;82.07;97974.91;4917443;28;101283;-79
2023/10/20 06:51:51;;;;;;;66.50;37.25;;;;;;;9.65;82.30;97982.56;4918099;28;96744;-79
2023/10/20 06:54:17;;;;;;;74.22;38.55;;;;;;;9.71;82.08;97993.44;4917448;28;96932;-79
2023/10/20 06:56:42;;;;;;;69.80;37.70;;;;;;;9.43;82.05;97957.81;4917942;28;101258;-78
2023/10/20 06:59:13;;;;;;;67.45;37.40;;;;;;;9.63;82.25;97979.19;4934275;28;97524;-79
2023/10/20 07:01:40;;;;;;;77.00;41.03;;;;;;;9.37;82.42;97939.91;4935587;28;96942;-80
2023/10/20 07:04:08;;;;;;;72.40;37.63;;;;;;;9.62;82.69;97948.72;4949608;28;96932;-79
2023/10/20 07:06:34;;;;;;;71.93;38.80;;;;;;;9.61;82.48;97950.50;4917298;28;101291;-79
2023/10/20 07:09:00;;;;;;;71.40;38.00;;;;;;;9.68;82.77;97948.28;4947375;28;97378;-81
2023/10/20 07:11:26;;;;;;;68.97;38.00;;;;;;;9.58;82.10;97903.56;4917656;28;96910;-79
2023/10/20 07:13:52;;;;;;;70.07;38.80;;;;;;;9.58;82.25;97897.50;4916901;28;97304;-79
2023/10/20 07:16:17;;;;;;;66.25;37.67;;;;;;;9.72;82.54;97934.06;4934218;28;97424;-79
2023/10/20 07:18:43;;;;;;;66.32;36.03;;;;;;;9.73;82.56;97925.25;4949761;28;97630;-81
2023/10/20 07:21:08;;;;;;;67.53;38.70;;;;;;;9.79;81.76;97909.09;4934179;28;96789;-78
2023/10/20 07:23:34;;;;;;;66.40;36.88;;;;;;;9.87;82.47;97934.78;4934133;28;97248;-79
2023/10/20 07:26:00;;;;;;;63.38;35.53;;;;;;;9.73;82.47;97909.53;4951597;28;99128;-81
2023/10/20 07:28:26;;;;;;;67.63;35.17;;;;;;;9.80;82.82;97933.50;4916933;28;99478;-79
2023/10/20 07:30:53;;;;;;;71.22;38.72;;;;;;;9.77;82.51;97931.94;4933916;28;96735;-79
2023/10/20 07:33:19;;;;;;;75.68;39.72;;;;;;;9.80;83.03;97931.72;4917631;28;96869;-79
2023/10/20 07:35:44;;;;;;;74.53;36.25;;;;;;;9.82;82.70;97942.13;4933596;28;98020;-79
2023/10/20 07:38:12;;;;;;;73.22;38.70;;;;;;;9.63;83.42;97934.66;4933029;28;102029;-81
2023/10/20 07:40:38;;;;;;;68.47;38.25;;;;;;;9.79;83.26;97944.94;4934129;28;97103;-79
2023/10/20 07:43:06;;;;;;;71.70;38.38;;;;;;;9.61;83.01;97892.03;4917125;28;97129;-80
2023/10/20 07:45:41;;;;;;;65.07;35.67;;;;;;;9.95;82.83;97912.34;4933745;28;97476;-79
2023/10/20 07:48:08;;;;;;;68.35;36.78;;;;;;;10.04;82.73;97928.38;4933230;28;97869;-79
2023/10/20 07:50:33;;;;;;;73.57;38.25;;;;;;;9.88;82.69;97908.47;4919737;28;97149;-81
2023/10/20 07:52:59;;;;;;;69.80;37.83;;;;;;;9.82;83.14;97913.28;4954264;28;96725;-79
2023/10/20 07:55:25;;;;;;;71.13;37.65;;;;;;;9.67;83.53;97896.84;4919982;28;101262;-79
2023/10/20 07:57:51;;;;;;;69.57;37.35;;;;;;;9.55;84.05;97882.81;4920164;28;101153;-80
2023/10/20 08:00:18;;;;;;;74.97;40.03;;;;;;;9.63;84.39;97900.59;4955051;28;96666;-79
2023/10/20 08:02:44;;;;;;;72.15;37.58;;;;;;;9.62;84.55;97885.84;4950264;28;97295;-79
2023/10/20 08:05:10;;;;;;;75.65;38.58;;;;;;;9.67;84.22;97891.63;4936048;28;97457;-79
2023/10/20 08:07:38;;;;;;;71.65;37.40;;;;;;;9.66;84.54;97871.63;4920154;28;97971;-79
2023/10/20 08:10:07;;;;;;;72.93;38.05;;;;;;;9.73;84.14;97870.22;4936982;28;97114;-79
2023/10/20 08:12:32;;;;;;;85.20;40.95;;;;;;;9.73;84.52;97870.22;4920286;28;97374;-79
2023/10/20 08:14:58;;;;;;;77.13;39.55;;;;;;;9.79;84.08;97882.06;4904349;28;101902;-79
2023/10/20 08:17:24;;;;;;;77.53;39.10;;;;;;;9.84;84.36;97870.31;4936151;28;97833;-79
2023/10/20 08:19:49;;;;;;;83.80;40.95;;;;;;;9.80;84.64;97850.50;4936340;28;96905;-79
2023/10/20 08:22:15;;;;;;;78.47;40.70;;;;;;;9.88;84.10;97847.38;4936442;28;97336;-79
2023/10/20 08:24:40;;;;;;;78.55;40.13;;;;;;;9.89;84.07;97856.88;4953259;28;97414;-80
2023/10/20 08:27:06;;;;;;;84.57;41.00;;;;;;;10.02;84.55;97869.97;4954009;28;97528;-79
2023/10/20 08:29:32;;;;;;;75.43;39.45;;;;;;;9.96;84.53;97858.97;4920019;28;97107;-79
2023/10/20 08:31:57;;;;;;;91.72;42.17;;;;;;;9.75;85.01;97840.38;4919537;28;97019;-79
2023/10/20 08:34:23;;;;;;;85.57;41.25;;;;;;;9.78;84.68;97818.34;4935636;28;97646;-80
2023/10/20 08:36:49;;;;;;;85.20;41.28;;;;;;;9.99;84.64;97823.84;4919980;28;97488;-79
2023/10/20 08:39:19;;;;;;;85.63;43.05;;;;;;;10.04;84.60;97836.66;4903457;28;96794;-79
2023/10/20 08:41:45;;;;;;;85.70;40.75;;;;;;;9.93;84.56;97830.38;4937230;28;96826;-79
2023/10/20 08:44:14;;;;;;;81.63;40.33;;;;;;;9.86;85.18;97818.66;4918947;28;97495;-79
2023/10/20 08:46:40;;;;;;;88.13;41.40;;;;;;;10.01;84.94;97826.38;4931675;28;97891;-79
2023/10/20 08:49:07;;;;;;;79.85;40.70;;;;;;;9.86;84.61;97791.59;4952271;28;97713;-80
2023/10/20 08:51:33;;;;;;;78.47;40.05;;;;;;;9.92;84.84;97793.81;4920276;28;97212;-80
2023/10/20 08:53:59;;;;;;;87.68;40.08;;;;;;;9.97;85.20;97795.13;4918884;28;101148;-80
2023/10/20 08:56:24;;;;;;;83.10;39.78;;;;;;;9.90;85.23;97786.03;4919977;28;97392;-81
2023/10/20 08:58:50;;;;;;;72.70;37.53;;;;;;;10.05;85.13;97819.97;4919606;28;97087;-80
2023/10/20 09:01:16;;;;;;;75.28;38.15;;;;;;;10.12;85.49;97823.81;4936214;28;96832;-71
2023/10/20 09:03:43;;;;;;;78.75;39.35;;;;;;;10.05;84.98;97796.38;4931884;28;101272;-73
2023/10/20 09:06:14;;;;;;;82.75;38.55;;;;;;;10.13;84.76;97792.25;4924066;28;101203;-71
2023/10/20 09:08:40;;;;;;;88.07;41.22;;;;;;;10.36;84.91;97801.09;4934552;28;97475;-73
2023/10/20 09:11:10;;;;;;;77.90;38.00;;;;;;;10.15;84.73;97758.91;4934555;28;97224;-73
2023/10/20 09:13:43;;;;;;;80.47;39.17;;;;;;;10.31;84.78;97782.25;4923946;28;98500;-72
2023/10/20 09:16:10;;;;;;;80.53;39.67;;;;;;;10.34;84.64;97782.00;4933251;28;100894;-72
2023/10/20 09:18:44;;;;;;;81.88;38.83;;;;;;;10.37;84.98;97780.97;4931437;28;97566;-73
2023/10/20 09:21:11;;;;;;;77.90;41.45;;;;;;;10.26;84.53;97754.66;4918837;28;96862;-72
2023/10/20 09:23:36;;;;;;;76.95;39.08;;;;;;;10.38;84.80;97782.63;4932591;28;98054;-73
2023/10/20 09:26:02;;;;;;;74.20;36.72;;;;;;;10.20;85.00;97769.03;4951672;28;98155;-74
2023/10/20 09:28:27;;;;;;;83.50;39.15;;;;;;;10.22;85.42;97761.91;4951829;28;98275;-72
2023/10/20 09:30:55;;;;;;;76.45;36.60;;;;;;;10.34;85.04;97782.00;4918466;28;97493;-72
2023/10/20 09:33:23;;;;;;;76.95;40.00;;;;;;;10.39;85.05;97779.91;4936947;28;98706;-73
2023/10/20 09:35:50;;;;;;;79.68;38.42;;;;;;;10.37;85.16;97783.59;4926365;28;97566;-74
2023/10/20 09:38:20;;;;;;;85.45;39.50;;;;;;;10.51;84.78;97793.06;4947474;28;96858;-72
2023/10/20 09:40:46;;;;;;;85.45;39.83;;;;;;;10.28;84.90;97756.25;4940708;28;97264;-72
2023/10/20 09:43:23;;;;;;;75.15;38.22;;;;;;;10.32;84.79;97760.31;4946968;28;98311;-73
2023/10/20 09:46:03;;;;;;;87.47;42.30;;;;;;;10.28;84.71;97758.03;4935091;28;97380;-72
2023/10/20 09:48:29;;;;;;;81.15;40.75;;;;;;;10.48;84.76;97791.50;4933928;28;97000;-79
2023/10/20 09:50:55;;;;;;;88.35;41.72;;;;;;;10.32;84.45;97776.03;4920555;28;97087;-72
2023/10/20 09:53:21;;;;;;;86.43;40.50;;;;;;;10.52;84.85;97782.44;4922361;28;99550;-71
2023/10/20 09:55:47;;;;;;;83.70;41.20;;;;;;;10.58;84.83;97786.41;4917816;28;101299;-81
2023/10/20 09:58:13;;;;;;;85.18;41.38;;;;;;;10.48;84.50;97770.53;4930134;28;97347;-80
2023/10/20 10:00:43;;;;;;;86.13;41.60;;;;;;;10.48;84.50;97749.53;4915100;28;96932;-80
2023/10/20 10:03:12;;;;;;;88.78;41.83;;;;;;;10.59;84.31;97761.88;4917559;28;97601;-79
2023/10/20 10:05:38;;;;;;;74.93;37.38;;;;;;;10.61;84.48;97763.41;4933465;28;98161;-74
2023/10/20 10:08:07;;;;;;;85.38;41.00;;;;;;;10.41;84.53;97709.81;4917758;28;97173;-82
2023/10/20 10:10:35;;;;;;;87.20;41.58;;;;;;;10.63;84.50;97748.38;4917936;28;97105;-81
2023/10/20 10:13:04;;;;;;;88.28;42.72;;;;;;;10.68;84.47;97752.47;4932326;28;99971;-81
2023/10/20 10:15:41;;;;;;;86.00;41.55;;;;;;;10.64;84.20;97738.72;4934744;28;97932;-82
2023/10/20 10:18:12;;;;;;;81.78;41.80;;;;;;;10.46;84.21;97717.34;4933786;28;97228;-82
2023/10/20 10:20:46;;;;;;;91.57;41.92;;;;;;;10.45;85.01;97720.91;4943872;28;97140;-82
2023/10/20 10:23:12;;;;;;;87.95;42.15;;;;;;;10.56;85.13;97734.06;4942734;28;97962;-82
2023/10/20 10:25:41;;;;;;;88.55;40.95;;;;;;;10.56;84.43;97710.47;4917508;28;98566;-81
2023/10/20 10:28:14;;;;;;;81.72;41.08;;;;;;;10.62;84.89;97725.72;4917570;28;97097;-82
2023/10/20 10:30:41;;;;;;;79.38;39.50;;;;;;;10.26;84.81;97644.53;4917474;28;96933;-82
2023/10/20 10:33:10;;;;;;;80.55;40.05;;;;;;;10.83;84.81;97728.50;4948441;28;98207;-81
2023/10/20 10:35:39;;;;;;;85.93;40.63;;;;;;;10.45;84.92;97672.88;4916866;28;101343;-81
2023/10/20 10:38:29;;;;;;;87.35;42.05;;;;;;;10.84;84.40;97727.56;4949480;28;96979;-75
2023/10/20 10:40:57;;;;;;;84.45;41.88;;;;;;;10.89;84.88;97729.84;4918104;28;97398;-75
2023/10/20 10:43:23;;;;;;;83.43;41.08;;;;;;;10.79;84.16;97716.59;4933230;28;97695;-75
2023/10/20 10:45:52;;;;;;;77.05;40.60;;;;;;;10.65;84.73;97701.06;4930883;28;98111;-74
2023/10/20 10:48:18;;;;;;;88.47;42.50;;;;;;;10.82;84.60;97744.38;4929786;28;97252;-77
2023/10/20 10:50:45;;;;;;;85.65;42.05;;;;;;;10.73;84.77;97731.94;4914375;28;97407;-75
2023/10/20 10:53:12;;;;;;;91.50;41.53;;;;;;;10.90;84.96;97749.03;4915737;28;97527;-76
2023/10/20 10:55:38;;;;;;;87.70;42.67;;;;;;;10.90;85.04;97728.88;4915253;28;101255;-76
2023/10/20 10:58:08;;;;;;;86.97;43.17;;;;;;;10.78;84.83;97707.03;4913390;28;97291;-76
2023/10/20 11:00:35;;;;;;;85.70;41.23;;;;;;;11.08;84.27;97735.38;4910111;28;96978;-75
2023/10/20 11:03:02;;;;;;;91.28;43.75;;;;;;;10.99;84.56;97712.41;4931133;28;98098;-75
2023/10/20 11:05:28;;;;;;;82.43;42.10;;;;;;;11.13;84.48;97721.88;4947765;28;98114;-75
2023/10/20 11:08:03;;;;;;;85.90;44.33;;;;;;;11.14;84.74;97701.69;4922659;28;97431;-74
2023/10/20 11:10:32;;;;;;;87.28;44.47;;;;;;;11.19;84.88;97692.50;4906847;28;97274;-76
2023/10/20 11:12:58;;;;;;;82.82;41.80;;;;;;;11.21;84.49;97681.91;4944882;28;97470;-75
2023/10/20 11:15:30;;;;;;;76.82;41.55;;;;;;;11.05;85.31;97663.88;4907066;28;101426;-81
2023/10/20 11:17:57;;;;;;;76.63;40.17;;;;;;;11.12;85.21;97656.38;4923596;28;96853;-81
2023/10/20 11:20:23;;;;;;;73.57;41.10;;;;;;;11.12;84.71;97645.84;4912458;28;97385;-81
2023/10/20 11:22:56;;;;;;;76.00;40.60;;;;;;;11.13;84.49;97629.97;4905349;28;98367;-81
2023/10/20 11:25:23;;;;;;;80.07;42.72;;;;;;;11.25;84.90;97655.25;4917443;28;101905;-80
2023/10/20 11:27:55;;;;;;;78.63;39.72;;;;;;;11.32;84.56;97674.84;4919384;28;97323;-80
2023/10/20 11:30:35;;;;;;;92.57;42.00;;;;;;;11.28;84.86;97670.78;4920507;28;97257;-75
2023/10/20 11:33:01;;;;;;;73.70;40.10;;;;;;;11.22;84.73;97647.63;4934499;28;98259;-82
2023/10/20 11:35:27;;;;;;;80.40;40.38;;;;;;;11.35;85.20;97672.94;4901998;28;101323;-86
2023/10/20 11:37:54;;;;;;;73.65;40.17;;;;;;;11.34;85.05;97679.97;4938343;28;96905;-83
2023/10/20 11:40:21;;;;;;;79.53;42.25;;;;;;;11.23;85.19;97654.56;4919621;28;97062;-84
2023/10/20 11:42:48;;;;;;;72.20;41.53;;;;;;;11.39;85.27;97684.84;4920143;28;101313;-84
2023/10/20 11:45:14;;;;;;;81.60;41.28;;;;;;;11.43;84.73;97681.88;4936932;28;98094;-84
2023/10/20 11:47:40;;;;;;;77.30;42.33;;;;;;;11.26;85.41;97656.13;4936133;28;97489;-84